Time;durP1;ratioP1;P1;durP2;ratioP2;P2;SDS_P1;SDS_P2;PMS_P1;PMS_P2;Temp;Humidity;BMP_temperature;BMP_pressure;BME280_temperature;BME280_humidity;BME280_pressure;Samples;Min_cycle;Max_cycle;Signal;HPM_P1;HPM_P2
2021/09/19 00:00:31;;;;;;;37.33;18.40;;;;;;;;;;5053492;28;20495;-68
2021/09/19 00:03:35;;;;;;;40.00;18.63;;;;;;;;;;5053397;28;20108;-68
2021/09/19 00:06:40;;;;;;;37.13;17.95;;;;;;;;;;5053314;28;20060;-68
2021/09/19 00:09:45;;;;;;;40.25;19.70;;;;;;;;;;5052552;28;20059;-68
2021/09/19 00:12:49;;;;;;;40.35;19.83;;;;;;;;;;5053537;28;20052;-68
2021/09/19 00:15:53;;;;;;;33.10;20.05;;;;;;;;;;5053681;28;20380;-68
2021/09/19 00:18:57;;;;;;;43.58;21.77;;;;;;;;;;5053536;28;20044;-67
2021/09/19 00:22:02;;;;;;;50.05;24.00;;;;;;;;;;5053132;28;20044;-67
2021/09/19 00:25:07;;;;;;;44.05;22.45;;;;;;;;;;5053074;28;20066;-67
2021/09/19 00:28:12;;;;;;;43.47;22.45;;;;;;;;;;5052928;28;20646;-69
2021/09/19 00:31:16;;;;;;;44.13;21.27;;;;;;;;;;5052752;28;20048;-67
2021/09/19 00:34:21;;;;;;;38.33;20.65;;;;;;;;;;5052491;28;20056;-69
2021/09/19 00:37:26;;;;;;;35.55;20.85;;;;;;;;;;5052893;28;20036;-68
2021/09/19 00:40:30;;;;;;;39.85;20.13;;;;;;;;;;5052669;28;20052;-67
2021/09/19 00:43:34;;;;;;;30.95;18.58;;;;;;;;;;5052697;28;20040;-67
2021/09/19 00:46:39;;;;;;;40.55;17.58;;;;;;;;;;5052482;28;20040;-67
2021/09/19 00:49:43;;;;;;;30.75;16.20;;;;;;;;;;5052521;28;20054;-67
2021/09/19 00:52:48;;;;;;;38.00;16.92;;;;;;;;;;5052215;28;20052;-67
2021/09/19 00:55:53;;;;;;;32.15;16.85;;;;;;;;;;5052491;28;20059;-68
2021/09/19 00:58:58;;;;;;;32.90;17.92;;;;;;;;;;5052459;28;20035;-68
2021/09/19 01:02:03;;;;;;;28.63;16.75;;;;;;;;;;5052799;28;20056;-67
2021/09/19 01:05:08;;;;;;;27.65;16.65;;;;;;;;;;5052355;28;20040;-68
2021/09/19 01:08:14;;;;;;;32.22;17.17;;;;;;;;;;5052369;28;20048;-68
2021/09/19 01:11:20;;;;;;;36.17;16.80;;;;;;;;;;5052325;28;20048;-68
2021/09/19 01:14:25;;;;;;;34.63;17.15;;;;;;;;;;5051988;28;20056;-67
2021/09/19 01:17:29;;;;;;;30.15;15.68;;;;;;;;;;5052276;28;20044;-68
2021/09/19 01:20:34;;;;;;;40.72;16.83;;;;;;;;;;5052105;28;20048;-68
2021/09/19 01:23:40;;;;;;;32.60;15.65;;;;;;;;;;5052199;28;20048;-67
2021/09/19 01:26:45;;;;;;;33.47;15.27;;;;;;;;;;5051608;28;20043;-66
2021/09/19 01:29:49;;;;;;;33.60;16.08;;;;;;;;;;5051964;28;20491;-66
2021/09/19 01:32:54;;;;;;;32.83;16.80;;;;;;;;;;5051432;28;20075;-68
2021/09/19 01:35:58;;;;;;;35.13;16.35;;;;;;;;;;5051591;28;20056;-68
2021/09/19 01:39:06;;;;;;;37.58;16.25;;;;;;;;;;5051765;28;20044;-68
2021/09/19 01:42:11;;;;;;;40.22;16.67;;;;;;;;;;5051085;28;20048;-67
2021/09/19 01:45:16;;;;;;;22.83;15.25;;;;;;;;;;5051519;28;20056;-68
2021/09/19 01:48:20;;;;;;;26.95;15.32;;;;;;;;;;5051601;28;20040;-68
2021/09/19 01:51:24;;;;;;;29.20;15.07;;;;;;;;;;5051690;28;20048;-67
2021/09/19 01:54:29;;;;;;;25.25;14.13;;;;;;;;;;5051237;28;20052;-68
2021/09/19 01:57:33;;;;;;;31.23;15.73;;;;;;;;;;5051468;28;20040;-68
2021/09/19 02:00:38;;;;;;;23.15;13.07;;;;;;;;;;5050484;28;20056;-68
2021/09/19 02:03:42;;;;;;;22.98;11.48;;;;;;;;;;5050951;28;20043;-68
2021/09/19 02:06:47;;;;;;;23.52;11.93;;;;;;;;;;5051128;28;20393;-68
2021/09/19 02:09:51;;;;;;;25.33;12.02;;;;;;;;;;5051063;28;20052;-68
2021/09/19 02:12:56;;;;;;;28.98;14.23;;;;;;;;;;5050989;28;20036;-68
2021/09/19 02:16:01;;;;;;;24.67;12.27;;;;;;;;;;5051159;28;20048;-67
2021/09/19 02:19:05;;;;;;;22.35;12.82;;;;;;;;;;5051135;28;20041;-67
2021/09/19 02:22:11;;;;;;;28.27;12.90;;;;;;;;;;5050022;28;20043;-68
2021/09/19 02:25:15;;;;;;;30.95;12.68;;;;;;;;;;5050592;28;20055;-67
2021/09/19 02:28:20;;;;;;;31.80;12.38;;;;;;;;;;5050805;28;20044;-67
2021/09/19 02:31:24;;;;;;;23.98;11.60;;;;;;;;;;5051176;28;20103;-67
2021/09/19 02:34:29;;;;;;;27.13;12.02;;;;;;;;;;5050741;28;20052;-67
2021/09/19 02:37:33;;;;;;;21.38;12.48;;;;;;;;;;5050885;28;20377;-67
2021/09/19 02:40:37;;;;;;;23.83;11.77;;;;;;;;;;5050934;28;20047;-67
2021/09/19 02:43:42;;;;;;;23.35;12.15;;;;;;;;;;5050731;28;20040;-67
2021/09/19 02:46:46;;;;;;;22.20;13.05;;;;;;;;;;5050650;28;20072;-67
2021/09/19 02:49:51;;;;;;;22.33;12.48;;;;;;;;;;5050590;28;20040;-67
2021/09/19 02:52:55;;;;;;;28.25;13.35;;;;;;;;;;5050643;28;20052;-67
2021/09/19 02:55:59;;;;;;;22.30;13.05;;;;;;;;;;5054611;28;20048;-67
2021/09/19 02:59:03;;;;;;;19.08;12.88;;;;;;;;;;5054919;28;20048;-68
2021/09/19 03:02:08;;;;;;;26.40;14.10;;;;;;;;;;5054588;28;20059;-68
2021/09/19 03:05:12;;;;;;;26.05;13.82;;;;;;;;;;5054558;28;20492;-68
2021/09/19 03:08:17;;;;;;;30.70;14.48;;;;;;;;;;5054406;28;20044;-68
2021/09/19 03:11:21;;;;;;;26.88;15.13;;;;;;;;;;5054157;28;20040;-68
2021/09/19 03:14:25;;;;;;;25.88;14.63;;;;;;;;;;5054277;28;20408;-68
2021/09/19 03:17:30;;;;;;;29.77;16.15;;;;;;;;;;5054434;28;20048;-68
2021/09/19 03:20:34;;;;;;;25.55;14.35;;;;;;;;;;5053853;28;20108;-68
2021/09/19 03:23:38;;;;;;;29.08;14.55;;;;;;;;;;5054269;28;20048;-68
2021/09/19 03:26:43;;;;;;;34.03;14.40;;;;;;;;;;5054192;28;20117;-68
2021/09/19 03:29:47;;;;;;;24.73;13.10;;;;;;;;;;5054023;28;20244;-66
2021/09/19 03:32:52;;;;;;;29.00;13.13;;;;;;;;;;5053636;28;20421;-67
2021/09/19 03:35:56;;;;;;;30.25;13.90;;;;;;;;;;5054071;28;20052;-67
2021/09/19 03:39:00;;;;;;;30.35;14.13;;;;;;;;;;5053864;28;20036;-67
2021/09/19 03:42:05;;;;;;;26.70;13.90;;;;;;;;;;5054165;28;20050;-67
2021/09/19 03:45:10;;;;;;;28.45;14.85;;;;;;;;;;5053742;28;20044;-68
2021/09/19 03:48:15;;;;;;;26.42;13.85;;;;;;;;;;5053510;28;20040;-67
2021/09/19 03:51:20;;;;;;;28.33;14.07;;;;;;;;;;5053067;28;20048;-68
2021/09/19 03:54:24;;;;;;;28.85;14.00;;;;;;;;;;5052681;28;20048;-68
2021/09/19 03:57:28;;;;;;;23.38;14.02;;;;;;;;;;5053633;28;20044;-66
2021/09/19 04:00:32;;;;;;;24.10;13.07;;;;;;;;;;5053483;28;20044;-66
2021/09/19 04:03:37;;;;;;;38.33;13.50;;;;;;;;;;5053770;28;20040;-66
2021/09/19 04:06:41;;;;;;;20.95;13.02;;;;;;;;;;5053030;28;20044;-66
2021/09/19 04:09:45;;;;;;;26.33;13.55;;;;;;;;;;5053274;28;20040;-68
2021/09/19 04:12:49;;;;;;;25.08;13.10;;;;;;;;;;5053086;28;20048;-66
2021/09/19 04:15:54;;;;;;;21.88;12.32;;;;;;;;;;5053068;28;20052;-66
2021/09/19 04:18:59;;;;;;;29.92;13.88;;;;;;;;;;5053570;28;20044;-66
2021/09/19 04:22:03;;;;;;;27.38;13.25;;;;;;;;;;5053539;28;20048;-66
2021/09/19 04:25:08;;;;;;;25.17;13.73;;;;;;;;;;5053074;28;20060;-67
2021/09/19 04:28:12;;;;;;;25.27;13.85;;;;;;;;;;5053161;28;20043;-67
2021/09/19 04:31:16;;;;;;;28.45;12.57;;;;;;;;;;5052942;28;20048;-67
2021/09/19 04:34:20;;;;;;;29.77;13.88;;;;;;;;;;5052738;28;20056;-67
2021/09/19 04:37:25;;;;;;;22.65;13.15;;;;;;;;;;5052842;28;20503;-67
2021/09/19 04:40:30;;;;;;;25.45;13.55;;;;;;;;;;5053081;28;20507;-68
2021/09/19 04:43:34;;;;;;;33.78;15.13;;;;;;;;;;5052250;28;20052;-68
2021/09/19 04:46:38;;;;;;;22.40;13.25;;;;;;;;;;5053276;28;20052;-68
2021/09/19 04:49:42;;;;;;;30.40;14.43;;;;;;;;;;5052394;28;20530;-67
2021/09/19 04:52:47;;;;;;;23.58;12.85;;;;;;;;;;5052893;28;20492;-68
2021/09/19 04:55:51;;;;;;;21.88;12.82;;;;;;;;;;5052571;28;20040;-68
2021/09/19 04:58:55;;;;;;;23.13;13.35;;;;;;;;;;5053183;28;20048;-68
2021/09/19 05:01:59;;;;;;;29.00;13.93;;;;;;;;;;5040869;28;20392;-68
2021/09/19 05:05:04;;;;;;;23.83;13.43;;;;;;;;;;5052621;28;20048;-68
2021/09/19 05:08:09;;;;;;;23.48;13.43;;;;;;;;;;5051997;28;20059;-67
2021/09/19 05:11:13;;;;;;;32.20;20.05;;;;;;;;;;5052229;28;20048;-67
2021/09/19 05:14:17;;;;;;;21.58;15.73;;;;;;;;;;5052611;28;20444;-67
2021/09/19 05:17:22;;;;;;;22.77;13.43;;;;;;;;;;5051886;28;20044;-68
2021/09/19 05:20:26;;;;;;;20.27;11.57;;;;;;;;;;5051962;28;20048;-68
2021/09/19 05:23:31;;;;;;;22.02;11.80;;;;;;;;;;5052090;28;20400;-67
2021/09/19 05:26:35;;;;;;;15.90;10.05;;;;;;;;;;5052260;28;20040;-69
2021/09/19 05:29:39;;;;;;;18.52;9.10;;;;;;;;;;5051156;28;20044;-67
2021/09/19 05:32:44;;;;;;;16.98;8.73;;;;;;;;;;5051564;28;20045;-68
2021/09/19 05:35:48;;;;;;;21.38;9.27;;;;;;;;;;5051981;28;20044;-67
2021/09/19 05:38:53;;;;;;;24.08;10.20;;;;;;;;;;5051925;28;20033;-68
2021/09/19 05:41:58;;;;;;;19.85;11.82;;;;;;;;;;5040080;28;20056;-67
2021/09/19 05:45:02;;;;;;;24.25;13.27;;;;;;;;;;5051623;28;20044;-68
2021/09/19 05:48:07;;;;;;;27.52;14.30;;;;;;;;;;5051730;28;20048;-65
2021/09/19 05:51:12;;;;;;;30.67;17.95;;;;;;;;;;5051531;28;20526;-64
2021/09/19 05:54:16;;;;;;;30.55;17.48;;;;;;;;;;5050858;28;20056;-67
2021/09/19 05:57:21;;;;;;;25.13;13.55;;;;;;;;;;5050468;28;20047;-65
2021/09/19 06:00:25;;;;;;;28.15;14.70;;;;;;;;;;5051247;28;20043;-66
2021/09/19 06:03:30;;;;;;;31.40;14.10;;;;;;;;;;5051177;28;20036;-67
2021/09/19 06:06:34;;;;;;;21.58;12.38;;;;;;;;;;5051217;28;20535;-66
2021/09/19 06:09:38;;;;;;;25.20;11.55;;;;;;;;;;5051183;28;20036;-66
2021/09/19 06:12:43;;;;;;;25.25;11.15;;;;;;;;;;5051347;28;20043;-68
2021/09/19 06:15:47;;;;;;;17.35;9.25;;;;;;;;;;5051107;28;20051;-65
2021/09/19 06:18:52;;;;;;;19.50;9.18;;;;;;;;;;5051329;28;20496;-67
2021/09/19 06:21:59;;;;;;;18.73;8.90;;;;;;;;;;5051192;28;20373;-66
2021/09/19 06:25:03;;;;;;;16.08;8.48;;;;;;;;;;5051019;28;20040;-65
2021/09/19 06:28:08;;;;;;;18.42;8.98;;;;;;;;;;5051143;28;20033;-67
2021/09/19 06:31:12;;;;;;;21.52;9.68;;;;;;;;;;5050936;28;20036;-66
2021/09/19 06:34:17;;;;;;;23.58;9.45;;;;;;;;;;5012730;28;20054;-67
2021/09/19 06:37:21;;;;;;;20.88;8.55;;;;;;;;;;5010605;28;20033;-66
2021/09/19 06:40:25;;;;;;;14.95;8.30;;;;;;;;;;5011301;28;20038;-67
2021/09/19 06:43:30;;;;;;;20.25;8.48;;;;;;;;;;5011337;28;20034;-67
2021/09/19 06:46:34;;;;;;;17.55;8.07;;;;;;;;;;5011376;28;20038;-65
2021/09/19 06:49:38;;;;;;;19.85;9.15;;;;;;;;;;5011302;28;20042;-66
2021/09/19 06:52:42;;;;;;;14.02;8.07;;;;;;;;;;5011595;28;20624;-67
2021/09/19 06:55:47;;;;;;;21.55;8.85;;;;;;;;;;5011040;28;20046;-67
2021/09/19 06:58:51;;;;;;;21.13;8.57;;;;;;;;;;5010968;28;20038;-67
2021/09/19 07:01:55;;;;;;;17.67;7.90;;;;;;;;;;5011098;28;20038;-67
2021/09/19 07:05:00;;;;;;;17.35;8.75;;;;;;;;;;5010931;28;20030;-67
2021/09/19 07:08:04;;;;;;;21.90;9.30;;;;;;;;;;5010993;28;20038;-67
2021/09/19 07:11:08;;;;;;;21.67;8.63;;;;;;;;;;5010951;28;20038;-67
2021/09/19 07:14:12;;;;;;;16.85;8.07;;;;;;;;;;5010734;28;20486;-67
2021/09/19 07:17:17;;;;;;;18.85;7.50;;;;;;;;;;5010849;28;20042;-67
2021/09/19 07:20:21;;;;;;;23.42;7.47;;;;;;;;;;5010806;28;20038;-67
2021/09/19 07:23:26;;;;;;;20.58;6.45;;;;;;;;;;5011116;28;20375;-67
2021/09/19 07:26:30;;;;;;;12.27;6.65;;;;;;;;;;5010758;28;20038;-67
2021/09/19 07:29:35;;;;;;;20.13;7.03;;;;;;;;;;5010009;28;20038;-67
2021/09/19 07:32:40;;;;;;;17.75;6.78;;;;;;;;;;5028002;28;20044;-67
2021/09/19 07:35:44;;;;;;;14.57;5.95;;;;;;;;;;5049414;28;20169;-67
2021/09/19 07:38:49;;;;;;;16.70;6.28;;;;;;;;;;5050317;28;20041;-67
2021/09/19 07:41:54;;;;;;;12.98;5.43;;;;;;;;;;5053681;28;20032;-67
2021/09/19 07:44:59;;;;;;;12.02;4.90;;;;;;;;;;5053716;28;20037;-67
2021/09/19 07:48:09;;;;;;;13.40;5.80;;;;;;;;;;5053943;28;20044;-67
2021/09/19 07:51:15;;;;;;;12.38;5.03;;;;;;;;;;5053716;28;20041;-67
2021/09/19 07:54:19;;;;;;;14.45;5.28;;;;;;;;;;5053462;28;20045;-67
2021/09/19 07:57:23;;;;;;;11.32;5.07;;;;;;;;;;5053538;28;20041;-67
2021/09/19 08:00:28;;;;;;;14.63;4.78;;;;;;;;;;5052750;28;20045;-67
2021/09/19 08:03:33;;;;;;;12.02;5.05;;;;;;;;;;5053629;28;20044;-67
2021/09/19 08:06:37;;;;;;;15.95;5.13;;;;;;;;;;5053421;28;20032;-65
2021/09/19 08:09:42;;;;;;;19.02;5.28;;;;;;;;;;5053471;28;20037;-67
2021/09/19 08:12:47;;;;;;;10.88;4.53;;;;;;;;;;5053377;28;20045;-67
2021/09/19 08:15:51;;;;;;;8.95;4.38;;;;;;;;;;5053033;28;20041;-67
2021/09/19 08:18:55;;;;;;;13.55;5.00;;;;;;;;;;5053358;28;20033;-67
2021/09/19 08:21:59;;;;;;;12.52;5.32;;;;;;;;;;5053245;28;20037;-67
2021/09/19 08:25:06;;;;;;;10.45;4.10;;;;;;;;;;5053111;28;20037;-64
2021/09/19 08:28:11;;;;;;;13.95;4.60;;;;;;;;;;5052944;28;20041;-65
2021/09/19 08:31:16;;;;;;;13.07;4.78;;;;;;;;;;5053054;28;20484;-64
2021/09/19 08:34:20;;;;;;;12.57;4.53;;;;;;;;;;5052794;28;20036;-67
2021/09/19 08:37:25;;;;;;;11.38;4.35;;;;;;;;;;5052939;28;20505;-64
2021/09/19 08:40:29;;;;;;;10.68;5.30;;;;;;;;;;5052836;28;20041;-64
2021/09/19 08:43:33;;;;;;;15.25;4.88;;;;;;;;;;5052569;28;20041;-65
2021/09/19 08:46:38;;;;;;;15.32;4.95;;;;;;;;;;5052789;28;20120;-67
2021/09/19 08:49:44;;;;;;;12.98;4.80;;;;;;;;;;5052719;28;20037;-65
2021/09/19 08:52:49;;;;;;;21.58;5.72;;;;;;;;;;5052484;28;20033;-64
2021/09/19 08:55:53;;;;;;;11.10;4.03;;;;;;;;;;5052370;28;20044;-65
2021/09/19 08:58:58;;;;;;;10.57;4.70;;;;;;;;;;5052656;28;20037;-67
2021/09/19 09:02:03;;;;;;;12.35;4.47;;;;;;;;;;5052208;28;20045;-65
2021/09/19 09:05:08;;;;;;;11.43;4.80;;;;;;;;;;5052166;28;20037;-67
2021/09/19 09:08:13;;;;;;;12.55;5.35;;;;;;;;;;5052228;28;20370;-64
2021/09/19 09:11:17;;;;;;;11.98;4.30;;;;;;;;;;5051876;28;20033;-66
2021/09/19 09:14:22;;;;;;;14.93;5.47;;;;;;;;;;5051901;28;20045;-67
2021/09/19 09:17:29;;;;;;;13.75;5.50;;;;;;;;;;5052027;28;20480;-65
2021/09/19 09:20:53;;;;;;;14.77;5.03;;;;;;;;;;5051953;28;20037;-64
2021/09/19 09:23:59;;;;;;;13.52;5.38;;;;;;;;;;5051775;28;20045;-64
2021/09/19 09:27:17;;;;;;;12.23;5.20;;;;;;;;;;5051878;28;20037;-64
2021/09/19 09:30:26;;;;;;;15.63;5.38;;;;;;;;;;5051796;28;20033;-64
2021/09/19 09:33:30;;;;;;;15.85;4.60;;;;;;;;;;5051334;28;20041;-65
2021/09/19 09:36:50;;;;;;;19.55;5.18;;;;;;;;;;5051589;28;20045;-66
2021/09/19 09:39:54;;;;;;;11.43;4.57;;;;;;;;;;5051720;28;20037;-65
2021/09/19 09:43:02;;;;;;;10.73;4.28;;;;;;;;;;5051630;28;20386;-65
2021/09/19 09:46:10;;;;;;;8.40;3.58;;;;;;;;;;5051564;28;20045;-66
2021/09/19 09:49:14;;;;;;;11.75;3.72;;;;;;;;;;5051260;28;20041;-65
2021/09/19 09:52:19;;;;;;;8.45;3.40;;;;;;;;;;5051408;28;20385;-66
2021/09/19 09:55:23;;;;;;;10.55;3.00;;;;;;;;;;5050901;28;20044;-66
2021/09/19 09:58:27;;;;;;;8.70;3.53;;;;;;;;;;5051347;28;20028;-66
2021/09/19 10:01:32;;;;;;;7.80;2.92;;;;;;;;;;5051251;28;20037;-66
2021/09/19 10:04:36;;;;;;;9.85;3.47;;;;;;;;;;5050842;28;20040;-65
2021/09/19 10:07:42;;;;;;;8.95;3.00;;;;;;;;;;5051112;28;20099;-66
2021/09/19 10:10:47;;;;;;;11.05;2.90;;;;;;;;;;5050811;28;20029;-65
2021/09/19 10:13:52;;;;;;;9.73;2.50;;;;;;;;;;5050591;28;20041;-66
2021/09/19 10:16:57;;;;;;;6.28;3.00;;;;;;;;;;5051222;28;20041;-66
2021/09/19 10:20:03;;;;;;;4.57;2.47;;;;;;;;;;5050944;28;20037;-67
2021/09/19 10:23:20;;;;;;;9.10;2.97;;;;;;;;;;5050904;28;20041;-65
2021/09/19 10:26:24;;;;;;;4.78;2.80;;;;;;;;;;5051018;28;20029;-66
2021/09/19 10:29:29;;;;;;;6.72;2.80;;;;;;;;;;5051018;28;20049;-66
2021/09/19 10:32:43;;;;;;;6.97;2.47;;;;;;;;;;5050033;28;20041;-66
2021/09/19 10:35:50;;;;;;;8.55;2.97;;;;;;;;;;5050707;28;20489;-66
2021/09/19 10:39:10;;;;;;;10.38;2.30;;;;;;;;;;5050759;28;20033;-65
2021/09/19 10:42:25;;;;;;;7.90;2.40;;;;;;;;;;5050747;28;20040;-65
2021/09/19 10:45:42;;;;;;;5.20;2.50;;;;;;;;;;5049820;28;20037;-66
2021/09/19 10:48:48;;;;;;;16.33;3.28;;;;;;;;;;5050003;28;20037;-65
2021/09/19 10:52:01;;;;;;;7.18;2.20;;;;;;;;;;5050508;28;20037;-65
2021/09/19 10:55:17;;;;;;;6.97;2.85;;;;;;;;;;5050515;28;20052;-65
2021/09/19 10:58:23;;;;;;;21.55;17.70;;;;;;;;;;5050537;28;20041;-66
2021/09/19 11:01:35;;;;;;;11.23;5.18;;;;;;;;;;5050767;28;20052;-66
2021/09/19 11:04:39;;;;;;;9.30;2.42;;;;;;;;;;5050586;28;20623;-65
2021/09/19 11:07:44;;;;;;;8.57;2.60;;;;;;;;;;5050652;28;20037;-65
2021/09/19 11:10:58;;;;;;;7.00;2.88;;;;;;;;;;5050600;28;20033;-65
2021/09/19 11:14:03;;;;;;;12.23;3.42;;;;;;;;;;5050295;28;20037;-65
2021/09/19 11:17:24;;;;;;;8.15;2.20;;;;;;;;;;5054760;28;20045;-66
2021/09/19 11:20:31;;;;;;;6.18;2.85;;;;;;;;;;5054573;28;20041;-65
2021/09/19 11:23:37;;;;;;;13.68;3.08;;;;;;;;;;5053380;28;20041;-65
2021/09/19 11:26:41;;;;;;;8.45;3.10;;;;;;;;;;5053460;28;20384;-66
2021/09/19 11:32:48;;;;;;;7.85;3.50;;;;;;;;;;4840210;23;20417;-67
2021/09/19 11:35:53;;;;;;;12.57;3.30;;;;;;;;;;4995173;28;20054;-67
2021/09/19 11:38:58;;;;;;;6.90;2.70;;;;;;;;;;4995484;28;20042;-67
2021/09/19 11:42:06;;;;;;;9.95;3.22;;;;;;;;;;4995016;28;20046;-68
2021/09/19 11:45:11;;;;;;;6.43;3.92;;;;;;;;;;4994454;28;20042;-67
2021/09/19 11:48:15;;;;;;;9.02;4.32;;;;;;;;;;4994976;28;20046;-67
2021/09/19 11:51:20;;;;;;;6.50;3.33;;;;;;;;;;4994452;28;20034;-67
2021/09/19 11:54:24;;;;;;;8.35;4.25;;;;;;;;;;4994330;28;20046;-67
2021/09/19 11:57:29;;;;;;;10.93;4.00;;;;;;;;;;4994783;28;20373;-67
2021/09/19 12:00:33;;;;;;;9.45;3.53;;;;;;;;;;4994444;28;20035;-66
2021/09/19 12:03:39;;;;;;;6.10;3.22;;;;;;;;;;4994370;28;20042;-66
2021/09/19 12:06:44;;;;;;;8.60;4.18;;;;;;;;;;4994370;28;20065;-66
2021/09/19 12:09:52;;;;;;;7.45;3.65;;;;;;;;;;4994104;28;20034;-66
2021/09/19 12:12:58;;;;;;;9.05;3.70;;;;;;;;;;4994069;28;20042;-66
2021/09/19 12:16:03;;;;;;;7.70;3.83;;;;;;;;;;4994133;28;20042;-66
2021/09/19 12:19:19;;;;;;;14.23;3.60;;;;;;;;;;4994198;28;20046;-66
2021/09/19 12:22:24;;;;;;;12.02;4.13;;;;;;;;;;4994096;28;20038;-66
2021/09/19 12:25:28;;;;;;;11.25;4.85;;;;;;;;;;4993749;28;20038;-66
2021/09/19 12:28:33;;;;;;;8.77;4.57;;;;;;;;;;4994024;28;20481;-67
2021/09/19 12:31:42;;;;;;;8.38;3.60;;;;;;;;;;4993552;28;20050;-67
2021/09/19 12:34:47;;;;;;;7.68;3.10;;;;;;;;;;4993723;28;20046;-65
2021/09/19 12:37:51;;;;;;;8.02;3.40;;;;;;;;;;4993632;28;20031;-66
2021/09/19 12:41:02;;;;;;;6.47;3.50;;;;;;;;;;4993956;28;20038;-66
2021/09/19 12:44:10;;;;;;;9.38;3.53;;;;;;;;;;4993570;28;20034;-66
2021/09/19 12:47:14;;;;;;;6.53;2.75;;;;;;;;;;4993469;28;20474;-66
2021/09/19 12:50:19;;;;;;;8.63;2.90;;;;;;;;;;4993563;28;20386;-66
2021/09/19 12:53:27;;;;;;;9.95;3.92;;;;;;;;;;4993677;28;20038;-66
2021/09/19 12:56:32;;;;;;;7.15;2.70;;;;;;;;;;4993341;28;20114;-66
2021/09/19 12:59:36;;;;;;;5.28;2.90;;;;;;;;;;4993548;28;20521;-66
2021/09/19 13:02:40;;;;;;;6.65;2.83;;;;;;;;;;4992908;28;20042;-66
2021/09/19 13:05:45;;;;;;;7.43;3.10;;;;;;;;;;4993156;28;20042;-66
2021/09/19 13:08:51;;;;;;;5.53;2.10;;;;;;;;;;4981191;28;20398;-67
2021/09/19 13:11:56;;;;;;;9.35;2.35;;;;;;;;;;4992972;28;20042;-66
2021/09/19 13:15:00;;;;;;;5.78;2.00;;;;;;;;;;4993017;28;20493;-66
2021/09/19 13:18:04;;;;;;;4.43;1.90;;;;;;;;;;4993065;28;20038;-66
2021/09/19 13:21:10;;;;;;;8.05;1.60;;;;;;;;;;4992862;28;20039;-66
2021/09/19 13:24:14;;;;;;;4.60;1.70;;;;;;;;;;4992864;28;20046;-67
2021/09/19 13:27:19;;;;;;;3.83;1.60;;;;;;;;;;4992602;28;20481;-66
2021/09/19 13:30:24;;;;;;;5.68;1.90;;;;;;;;;;4980737;28;20034;-66
2021/09/19 13:33:32;;;;;;;3.80;1.42;;;;;;;;;;4992661;28;20046;-67
2021/09/19 13:36:40;;;;;;;4.43;1.63;;;;;;;;;;4992584;28;20042;-66
2021/09/19 13:39:45;;;;;;;6.00;1.80;;;;;;;;;;4992355;28;20035;-66
2021/09/19 13:42:49;;;;;;;7.35;1.85;;;;;;;;;;4992335;28;20042;-66
2021/09/19 13:45:53;;;;;;;6.50;1.77;;;;;;;;;;4980505;28;20038;-66
2021/09/19 13:48:57;;;;;;;10.60;1.73;;;;;;;;;;4992531;28;20037;-66
2021/09/19 13:52:05;;;;;;;5.50;1.70;;;;;;;;;;4992554;28;20042;-66
2021/09/19 13:55:10;;;;;;;5.38;2.00;;;;;;;;;;4992283;28;20047;-66
2021/09/19 13:58:15;;;;;;;5.97;1.52;;;;;;;;;;4992584;28;20034;-66
2021/09/19 14:01:19;;;;;;;8.35;2.17;;;;;;;;;;4992321;28;20485;-66
2021/09/19 14:04:24;;;;;;;7.65;2.40;;;;;;;;;;4992107;28;20039;-66
2021/09/19 14:07:28;;;;;;;6.13;2.20;;;;;;;;;;4992066;28;20034;-66
2021/09/19 14:10:33;;;;;;;4.68;2.30;;;;;;;;;;4991899;28;20374;-67
2021/09/19 14:13:37;;;;;;;5.07;2.08;;;;;;;;;;4979837;28;20042;-67
2021/09/19 14:16:42;;;;;;;5.55;2.00;;;;;;;;;;4991931;28;20050;-66
2021/09/19 14:19:46;;;;;;;4.22;2.35;;;;;;;;;;4991961;28;20038;-67
2021/09/19 14:22:50;;;;;;;5.93;2.38;;;;;;;;;;4991592;28;20046;-67
2021/09/19 14:25:55;;;;;;;6.70;2.33;;;;;;;;;;4991747;28;20042;-67
2021/09/19 14:28:59;;;;;;;11.02;2.90;;;;;;;;;;4991984;28;20046;-67
2021/09/19 14:32:03;;;;;;;7.38;2.35;;;;;;;;;;4979679;28;20050;-67
2021/09/19 14:35:07;;;;;;;6.88;2.25;;;;;;;;;;4991700;28;20050;-67
2021/09/19 14:38:11;;;;;;;4.65;2.15;;;;;;;;;;4992075;28;20355;-67
2021/09/19 14:41:16;;;;;;;7.15;2.50;;;;;;;;;;4991630;28;20046;-67
2021/09/19 14:44:21;;;;;;;5.90;2.50;;;;;;;;;;4991617;28;20035;-67
2021/09/19 14:47:25;;;;;;;4.68;2.33;;;;;;;;;;4991644;28;20038;-67
2021/09/19 14:50:30;;;;;;;6.97;2.38;;;;;;;;;;4994974;28;20038;-67
2021/09/19 14:53:34;;;;;;;10.80;2.17;;;;;;;;;;4995520;28;20042;-67
2021/09/19 14:56:40;;;;;;;6.05;1.90;;;;;;;;;;4995296;28;20050;-67
2021/09/19 14:59:45;;;;;;;5.20;1.70;;;;;;;;;;4995454;28;20038;-67
2021/09/19 15:02:49;;;;;;;5.22;1.63;;;;;;;;;;4995676;28;20497;-66
2021/09/19 15:05:53;;;;;;;8.88;2.08;;;;;;;;;;4995380;28;20046;-67
2021/09/19 15:08:58;;;;;;;5.88;1.90;;;;;;;;;;4995536;28;20493;-68
2021/09/19 15:12:02;;;;;;;5.53;1.90;;;;;;;;;;4994922;28;20038;-66
2021/09/19 15:15:08;;;;;;;9.60;1.75;;;;;;;;;;4993842;28;20046;-68
2021/09/19 15:18:12;;;;;;;8.15;1.80;;;;;;;;;;4994881;28;20039;-67
2021/09/19 15:21:16;;;;;;;8.13;2.35;;;;;;;;;;4994993;28;20039;-67
2021/09/19 15:24:23;;;;;;;3.53;1.80;;;;;;;;;;4994953;28;20046;-67
2021/09/19 15:27:28;;;;;;;8.15;2.38;;;;;;;;;;4993053;28;20038;-67
2021/09/19 15:30:32;;;;;;;5.70;1.88;;;;;;;;;;4994582;28;20652;-67
2021/09/19 15:33:37;;;;;;;6.70;2.88;;;;;;;;;;4994658;28;20054;-67
2021/09/19 15:36:41;;;;;;;3.90;2.10;;;;;;;;;;4994626;28;20050;-67
2021/09/19 15:39:45;;;;;;;10.52;2.67;;;;;;;;;;4994782;28;20039;-67
2021/09/19 15:42:51;;;;;;;7.20;2.25;;;;;;;;;;4994333;28;20038;-67
2021/09/19 15:46:00;;;;;;;7.95;2.17;;;;;;;;;;4994658;28;20046;-66
2021/09/19 15:49:06;;;;;;;16.33;3.30;;;;;;;;;;4982355;28;20046;-67
2021/09/19 15:52:10;;;;;;;14.85;3.15;;;;;;;;;;4993957;28;20039;-66
2021/09/19 15:55:14;;;;;;;12.25;2.60;;;;;;;;;;4992983;28;20054;-67
2021/09/19 15:58:19;;;;;;;9.80;3.10;;;;;;;;;;4992453;28;20378;-66
2021/09/19 16:01:23;;;;;;;8.82;3.17;;;;;;;;;;4991516;28;20046;-65
2021/09/19 16:04:28;;;;;;;9.75;2.72;;;;;;;;;;4992825;28;20043;-65
2021/09/19 16:07:32;;;;;;;9.98;3.00;;;;;;;;;;4994161;28;20046;-65
2021/09/19 16:10:36;;;;;;;8.07;2.78;;;;;;;;;;4982053;28;20481;-67
2021/09/19 16:13:43;;;;;;;10.90;3.10;;;;;;;;;;4993794;28;20034;-67
2021/09/19 16:16:48;;;;;;;8.90;2.65;;;;;;;;;;4993427;28;20046;-67
2021/09/19 16:19:52;;;;;;;16.50;3.30;;;;;;;;;;4993384;28;20030;-67
2021/09/19 16:22:57;;;;;;;8.73;2.53;;;;;;;;;;4993397;28;20042;-67
2021/09/19 16:26:01;;;;;;;12.88;2.92;;;;;;;;;;4993354;28;20510;-66
2021/09/19 16:29:05;;;;;;;8.25;2.92;;;;;;;;;;4993259;28;20497;-67
2021/09/19 16:32:11;;;;;;;9.13;2.88;;;;;;;;;;4993172;28;20034;-67
2021/09/19 16:35:15;;;;;;;12.07;4.03;;;;;;;;;;4993080;28;20371;-67
2021/09/19 16:38:19;;;;;;;7.28;2.60;;;;;;;;;;4993230;28;20038;-67
2021/09/19 16:41:25;;;;;;;11.05;3.17;;;;;;;;;;4993018;28;20379;-67
2021/09/19 16:44:30;;;;;;;12.18;3.72;;;;;;;;;;4992889;28;20050;-66
2021/09/19 16:47:34;;;;;;;10.25;3.22;;;;;;;;;;4993090;28;20046;-66
2021/09/19 16:50:40;;;;;;;8.98;3.20;;;;;;;;;;4992196;28;20034;-66
2021/09/19 16:53:45;;;;;;;18.85;2.95;;;;;;;;;;4992624;28;20122;-66
2021/09/19 16:56:49;;;;;;;14.68;3.20;;;;;;;;;;4992492;28;20042;-67
2021/09/19 16:59:53;;;;;;;9.15;3.60;;;;;;;;;;4993103;28;20042;-66
2021/09/19 17:02:58;;;;;;;11.93;3.60;;;;;;;;;;4993268;28;20034;-67
2021/09/19 17:06:04;;;;;;;8.88;3.40;;;;;;;;;;4981092;28;20042;-66
2021/09/19 17:09:08;;;;;;;7.50;2.97;;;;;;;;;;4992689;28;20042;-67
2021/09/19 17:12:12;;;;;;;9.48;2.88;;;;;;;;;;4992139;28;20034;-67
2021/09/19 17:15:18;;;;;;;12.30;3.40;;;;;;;;;;4992894;28;20046;-68
2021/09/19 17:18:23;;;;;;;7.72;2.60;;;;;;;;;;4993254;28;20521;-68
2021/09/19 17:21:29;;;;;;;15.27;3.20;;;;;;;;;;4981330;28;20477;-68
2021/09/19 17:24:34;;;;;;;15.57;2.95;;;;;;;;;;4993677;28;20394;-69
2021/09/19 17:27:39;;;;;;;7.47;2.80;;;;;;;;;;4993264;28;20039;-68
2021/09/19 17:30:43;;;;;;;10.07;3.35;;;;;;;;;;4993553;28;20338;-68
2021/09/19 17:33:48;;;;;;;8.60;3.03;;;;;;;;;;4993264;28;20050;-68
2021/09/19 17:36:52;;;;;;;15.60;3.50;;;;;;;;;;4993395;28;20481;-68
2021/09/19 17:39:59;;;;;;;11.32;3.20;;;;;;;;;;4993478;28;20039;-67
2021/09/19 17:43:04;;;;;;;18.02;3.40;;;;;;;;;;4993622;28;20379;-68
2021/09/19 17:46:08;;;;;;;17.35;3.53;;;;;;;;;;4993388;28;20050;-68
2021/09/19 17:49:13;;;;;;;10.73;4.15;;;;;;;;;;4993772;28;20046;-68
2021/09/19 17:52:17;;;;;;;24.65;5.32;;;;;;;;;;4993275;28;20379;-67
2021/09/19 17:55:21;;;;;;;18.17;6.20;;;;;;;;;;4993129;28;20042;-67
2021/09/19 17:58:29;;;;;;;28.05;7.70;;;;;;;;;;4993658;28;20034;-67
2021/09/19 18:01:34;;;;;;;16.55;5.65;;;;;;;;;;4993440;28;20046;-68
2021/09/19 18:04:40;;;;;;;13.05;4.82;;;;;;;;;;4992787;28;20042;-66
2021/09/19 18:07:45;;;;;;;11.02;4.60;;;;;;;;;;4992052;28;20042;-70
2021/09/19 18:10:53;;;;;;;14.18;4.82;;;;;;;;;;4993153;28;20038;-71
2021/09/19 18:14:00;;;;;;;14.07;4.20;;;;;;;;;;4992647;28;20371;-70
2021/09/19 18:17:04;;;;;;;16.58;4.85;;;;;;;;;;4992521;28;20042;-70